»·PEaware :: ENK1152 KGEG-KBOI

ENK1152 :: KGEG-KBOI

FLIGHT INFORMATION

Flight Status: Arrived
Operator: Unknown
More flights by this operator :: More flights under this callsign
Pilot: Gregory A. (9731)
Aircraft: BEECH AIRCRAFT SUPER KING AIR 350
(B350)
More flights by this aircraft type
Origin: KGEG Spokane Intl
United States
Destination: KBOI Boise Air Terminal/Gowen
United States
More flights between these airports :: More routes between these airports
Route: + GEG SUMOQ BEWTE3
File this flight plan on PilotEdge
Remarks:
Altitude:
(Current/Filed)
230ft
Speed:
(Current/Filed)
280kts
Departed: 05-May-18 04:32 PM
Arrived: 05-May-18 05:27 PM
Distance/Time
Traveled:
249nm/0:55
Distance/Time
To Go:
Arrived

Flight Plot

Page will automatically refresh every two minutes.

Flight plan parsing failed; only flown route is shown


Map Options




Map Legend


Flown Route
Filed Route
Departure Airport
Arrival Airport
Navaid (VOR, NDB)
Fix

Horizontal Profiles

Position Reports

Time Latitude Longitude Heading Altitude Ground
Speed
05-May-18 16:11 47.620007 -117.533997 186 2354ft 0kts
05-May-18 16:12 47.620007 -117.533997 186 2354ft 0kts
05-May-18 16:13 47.620007 -117.533997 186 2354ft 0kts
05-May-18 16:14 47.620649 -117.529777 98 2354ft 14kts
05-May-18 16:15 47.620712 -117.529103 355 2354ft 0kts
05-May-18 16:16 47.620712 -117.529103 355 2354ft 0kts
05-May-18 16:17 47.620713 -117.529103 355 2354ft 0kts
05-May-18 16:18 47.620714 -117.529103 355 2354ft 0kts
05-May-18 16:19 47.620714 -117.529103 355 2354ft 0kts
05-May-18 16:20 47.620715 -117.529103 355 2354ft 0kts
05-May-18 16:21 47.620716 -117.529103 355 2354ft 0kts
05-May-18 16:22 47.620717 -117.529104 355 2354ft 0kts
05-May-18 16:23 47.620717 -117.529104 355 2354ft 0kts
05-May-18 16:24 47.620718 -117.529104 355 2354ft 0kts
05-May-18 16:25 47.620719 -117.529104 355 2354ft 0kts
05-May-18 16:26 47.623056 -117.527182 43 2354ft 0kts
05-May-18 16:27 47.623056 -117.527182 43 2354ft 0kts
05-May-18 16:28 47.626588 -117.521829 45 2354ft 16kts
05-May-18 16:29 47.629792 -117.517039 44 2354ft 19kts
05-May-18 16:30 47.630732 -117.517562 314 2354ft 0kts
05-May-18 16:31 47.630732 -117.517563 314 2354ft 0kts
05-May-18 16:32 47.619348 -117.535739 221 2488ft 161kts
05-May-18 16:33 47.580023 -117.586404 220 4326ft 204kts
05-May-18 16:34 47.529546 -117.625938 177 6104ft 223kts
05-May-18 16:35 47.469867 -117.596520 162 7882ft 227kts
05-May-18 16:36 47.409453 -117.568720 166 9641ft 229kts
05-May-18 16:37 47.346832 -117.543759 168 11402ft 238kts
05-May-18 16:38 47.281196 -117.518575 168 13173ft 247kts
05-May-18 16:39 47.213486 -117.492843 169 14940ft 255kts
05-May-18 16:40 47.143221 -117.466291 169 16709ft 264kts
05-May-18 16:41 47.070823 -117.439021 170 18469ft 273kts
05-May-18 16:42 46.996033 -117.410919 171 20231ft 282kts
05-May-18 16:43 46.918875 -117.381993 172 21999ft 288kts
05-May-18 16:44 46.839758 -117.352544 174 23326ft 307kts
05-May-18 16:45 46.753864 -117.320972 173 23357ft 328kts
05-May-18 16:46 46.664416 -117.287826 173 23358ft 332kts
05-May-18 16:47 46.574658 -117.254597 173 23365ft 333kts
05-May-18 16:48 46.484746 -117.221462 174 23377ft 334kts
05-May-18 16:49 46.394405 -117.188322 174 23387ft 334kts
05-May-18 16:50 46.304242 -117.155369 174 23391ft 335kts
05-May-18 16:51 46.213592 -117.122359 174 23390ft 335kts
05-May-18 16:52 46.123148 -117.089523 174 23383ft 335kts
05-May-18 16:53 46.032791 -117.056837 174 23376ft 335kts
05-May-18 16:54 45.942210 -117.024143 175 23371ft 335kts
05-May-18 16:55 45.851797 -116.991685 175 23360ft 335kts
05-May-18 16:56 45.761404 -116.959332 175 23353ft 335kts
05-May-18 16:57 45.670859 -116.927013 175 23348ft 334kts
05-May-18 16:58 45.580808 -116.894982 175 23343ft 333kts
05-May-18 16:59 45.490814 -116.863090 175 23335ft 333kts
05-May-18 17:00 45.400549 -116.831194 175 23327ft 333kts
05-May-18 17:01 45.310752 -116.799575 176 23321ft 332kts
05-May-18 17:02 45.220734 -116.767983 176 23315ft 332kts
05-May-18 17:03 45.131173 -116.736664 176 23309ft 331kts
05-May-18 17:04 45.041685 -116.708376 180 23308ft 327kts
05-May-18 17:05 44.952260 -116.679222 171 23305ft 334kts
05-May-18 17:06 44.863261 -116.646166 178 23104ft 335kts
05-May-18 17:07 44.767712 -116.621758 179 21363ft 356kts
05-May-18 17:08 44.670209 -116.597349 178 19608ft 353kts
05-May-18 17:09 44.573979 -116.572796 177 17662ft 350kts
05-May-18 17:10 44.478978 -116.548453 175 15440ft 343kts
05-May-18 17:11 44.386762 -116.524832 174 13059ft 330kts
05-May-18 17:12 44.299553 -116.502496 172 11410ft 301kts
05-May-18 17:13 44.220332 -116.482262 172 10589ft 282kts
05-May-18 17:14 44.145672 -116.463272 172 10508ft 269kts
05-May-18 17:15 44.072277 -116.444680 172 10505ft 268kts
05-May-18 17:16 43.998800 -116.426094 172 10518ft 267kts
05-May-18 17:17 43.922207 -116.406917 169 8871ft 282kts
05-May-18 17:18 43.847397 -116.388050 169 8024ft 261kts
05-May-18 17:19 43.776825 -116.370262 169 8013ft 255kts
05-May-18 17:20 43.707210 -116.352530 168 8011ft 254kts
05-May-18 17:21 43.654704 -116.292814 118 7198ft 265kts
05-May-18 17:22 43.622790 -116.201937 113 5622ft 255kts
05-May-18 17:23 43.595360 -116.117625 113 5911ft 228kts
05-May-18 17:24 43.543944 -116.079410 203 5187ft 232kts
05-May-18 17:24 43.533333 -116.130250 293 3896ft 159kts
05-May-18 17:26 43.554017 -116.188973 293 3254ft 128kts
05-May-18 17:27 43.564874 -116.221249 294 2838ft 37kts
05-May-18 17:28 43.566555 -116.221971 114 2838ft 15kts

Navigation Log

Ident Type
Flight plan parsing failed, navigation log unavailable